Warner Springs, CA (92086)

7:09 AM PDT on May 25, 2015 (GMT -0700)
MesoWest | | Change Station
CLOSE
Current Station
Personal Weather Station
Location: Warner Springs, CA
Elevation: 2970 ft
Nearby Weather Stations

Elev 2970 ft 33.32 °N, 116.68 °W | Updated 32 minutes ago

Mostly Cloudy
Mostly Cloudy
44 °F
Feels Like 42 °F
N
4
Wind Variable Wind from NNE
Gusts 4.0 mph

Today
High -- | Low -- °F
--% Chance of Precip.
Yesterday
High -- | Low -- °F
Precip. -- in
5:40 AM 7:46 PM
Waxing Crescent, 49% visible
Pressure 29.97 in
Visibility 6.0 miles
Clouds Scattered Clouds 600 ft
Overcast 1300 ft
Windchill 42 °F
Dew Point 42 °F
Humidity 92%
Rainfall in
Snow Depth Not available.
UV 0 out of 12
Pollen 5.70 out of 12
Air Quality Not available.
Flu Activity Sporadic
SPECI KRNM 251400Z AUTO 28004KT 6SM BR SCT006 OVC013 13/11 A2997 RMK AO2 T01280111 $

More Conditions Fewer Conditions

Pressure 29.97 in
Visibility 6.0 miles
Clouds Scattered Clouds 600 ft
Overcast 1300 ft
Windchill 42 °F
Dew Point 42 °F
Humidity 92%
Rainfall in
Snow Depth Not available.
UV 0 out of 12
Pollen 5.70 out of 12
Air Quality Not available.
Flu Activity Sporadic
SPECI KRNM 251400Z AUTO 28004KT 6SM BR SCT006 OVC013 13/11 A2997 RMK AO2 T01280111 $

More Conditions Fewer Conditions

10-Day Weather Forecast

Almanac

Astronomy

May. 25, 2015 Rise Set
Actual Time
Civil Twilight
Nautical Twilight
Astronomical Twilight
Moon
Length of Visible Light
Length of Day
Tomorrow will be .
, % of the Moon is Illuminated

Today's Extremes

State Highs State Lows

Community

WunderPhotos

Upload Photos

1,824,020 photos uploaded!

WunderBlogs® & News

Nearby

Air Quality

  Air Quality AQ Index Pollutant
Not available.

Snow Depth

Station Depth Elevation

Earthquake Activity

City Distance Mag. Time & Date
Minimum magnitude displayed is 2.5.

Coastal Water Temperatures

Place Temperature

Stations

Nearby Weather Stations

Station Location Temp. Windchill Dew Point Humidity Wind Precip. Elev Updated Type